createdAt,value
2018-12-09T00:00:51.664Z,35.10
2018-12-09T00:03:33.147Z,30.20
2018-12-09T00:06:21.677Z,40.33
2018-12-09T00:08:50.948Z,44.83
2018-12-09T00:11:20.971Z,47.30
2018-12-09T00:13:50.138Z,33.67
2018-12-09T00:16:19.262Z,46.63
2018-12-09T00:18:48.529Z,33.13
2018-12-09T00:21:17.691Z,40.50
2018-12-09T00:23:46.897Z,47.33
2018-12-09T00:26:16.084Z,30.17
2018-12-09T00:28:45.327Z,35.07
2018-12-09T00:31:14.573Z,32.10
2018-12-09T00:33:43.779Z,32.27
2018-12-09T00:36:13.963Z,35.53
2018-12-09T00:38:43.207Z,32.53
2018-12-09T00:41:12.473Z,33.50
2018-12-09T00:43:42.076Z,41.73
2018-12-09T00:46:11.218Z,30.47
2018-12-09T00:48:40.390Z,31.53
2018-12-09T00:51:09.586Z,25.43
2018-12-09T00:53:39.385Z,31.03
2018-12-09T00:56:08.529Z,32.17
2018-12-09T00:58:37.690Z,31.23
2018-12-09T01:01:06.803Z,32.27
2018-12-09T01:03:35.963Z,28.73
2018-12-09T01:06:06.193Z,25.03
2018-12-09T01:08:35.462Z,30.27
2018-12-09T01:11:04.685Z,31.47
2018-12-09T01:13:36.006Z,26.73
2018-12-09T01:16:05.211Z,32.73
2018-12-09T01:18:35.354Z,34.30
2018-12-09T01:21:05.880Z,29.30
2018-12-09T01:23:35.016Z,38.47
2018-12-09T01:26:04.408Z,41.93
2018-12-09T01:28:33.611Z,34.23
2018-12-09T01:31:02.819Z,46.47
2018-12-09T01:33:32.770Z,36.63
2018-12-09T01:36:02.207Z,39.97
2018-12-09T01:38:31.409Z,42.57
2018-12-09T01:41:01.525Z,29.40
2018-12-09T01:43:30.701Z,36.53
2018-12-09T01:45:59.794Z,37.87
2018-12-09T01:48:28.921Z,36.10
2018-12-09T01:50:58.114Z,38.77
2018-12-09T01:54:40.182Z,39.83
2018-12-09T01:57:09.379Z,35.03
2018-12-09T01:59:38.506Z,32.23
2018-12-09T02:02:07.774Z,33.27
2018-12-09T02:04:36.876Z,28.23
2018-12-09T02:07:06.471Z,29.50
2018-12-09T02:09:35.580Z,45.90
2018-12-09T02:12:04.674Z,34.73
2018-12-09T02:14:33.771Z,33.93
2018-12-09T02:17:02.865Z,28.10
2018-12-09T02:19:32.054Z,26.43
2018-12-09T02:22:01.189Z,32.37
2018-12-09T02:24:31.092Z,34.30
2018-12-09T02:27:02.422Z,38.73
2018-12-09T02:29:33.795Z,34.97
2018-12-09T03:00:50.712Z,39.77
2018-12-09T03:03:19.981Z,42.47
2018-12-09T03:05:49.069Z,44.53
2018-12-09T03:08:18.182Z,35.80
2018-12-09T03:10:47.300Z,40.17
2018-12-09T03:13:16.502Z,43.50
2018-12-09T03:15:46.559Z,49.83
2018-12-09T03:18:20.651Z,34.53
2018-12-09T03:20:49.921Z,36.60
2018-12-09T03:23:19.134Z,35.57
2018-12-09T03:25:48.306Z,37.77
2018-12-09T03:28:17.721Z,37.13
2018-12-09T03:30:46.942Z,33.63
2018-12-09T03:33:16.130Z,31.93
2018-12-09T03:35:45.295Z,41.90
2018-12-09T03:38:14.396Z,34.90
2018-12-09T03:40:44.195Z,30.50
2018-12-09T03:43:13.326Z,31.30
2018-12-09T03:45:43.565Z,33.20
2018-12-09T03:48:11.738Z,31.00
2018-12-09T03:50:40.888Z,30.70
2018-12-09T03:53:09.998Z,34.90
2018-12-09T03:55:39.195Z,28.97
2018-12-09T03:58:08.385Z,29.03
2018-12-09T04:00:38.105Z,42.20
2018-12-09T04:03:07.359Z,43.27
2018-12-09T04:05:36.504Z,38.57
2018-12-09T04:08:05.734Z,39.50
2018-12-09T04:10:34.932Z,46.20
2018-12-09T04:13:04.105Z,31.70
2018-12-09T04:15:37.345Z,40.07
2018-12-09T04:18:06.613Z,39.33
2018-12-09T04:20:35.830Z,42.70
2018-12-09T04:23:04.938Z,42.37
2018-12-09T04:25:34.056Z,28.37
2018-12-09T04:28:03.229Z,37.53
2018-12-09T04:30:32.340Z,37.63
2018-12-09T04:33:01.404Z,26.90
2018-12-09T04:35:30.651Z,32.20
2018-12-09T04:37:59.743Z,35.83
2018-12-09T04:40:28.870Z,40.73
2018-12-09T04:42:58.054Z,42.23
2018-12-09T04:45:27.205Z,38.33
2018-12-09T04:47:56.360Z,31.60
2018-12-09T04:50:25.495Z,35.87
2018-12-09T04:52:54.703Z,33.73
2018-12-09T04:55:23.933Z,40.70
2018-12-09T04:57:53.152Z,36.60
2018-12-09T05:00:33.164Z,31.70
2018-12-09T05:03:02.309Z,43.07
2018-12-09T05:05:32.067Z,36.70
2018-12-09T05:08:01.252Z,36.47
2018-12-09T05:10:30.823Z,33.67
2018-12-09T05:13:00.026Z,39.80
2018-12-09T05:15:29.173Z,24.80
2018-12-09T05:17:58.236Z,24.27
2018-12-09T05:20:27.333Z,15.20
2018-12-09T05:22:56.398Z,21.83
2018-12-09T05:25:25.555Z,25.40
2018-12-09T05:27:54.659Z,26.10
2018-12-09T05:30:24.469Z,24.43
2018-12-09T05:32:54.647Z,21.97
2018-12-09T05:35:23.806Z,26.73
2018-12-09T05:37:54.425Z,22.63
2018-12-09T05:40:23.642Z,18.17
2018-12-09T05:42:52.968Z,26.63
2018-12-09T05:45:22.192Z,29.20
2018-12-09T05:47:52.409Z,23.83
2018-12-09T05:50:21.596Z,28.80
2018-12-09T05:52:50.774Z,20.83
2018-12-09T05:55:19.970Z,17.50
2018-12-09T05:57:49.758Z,26.43
2018-12-09T06:00:19.890Z,24.90
2018-12-09T06:02:55.718Z,22.50
2018-12-09T06:05:24.960Z,26.27
2018-12-09T06:07:54.099Z,23.90
2018-12-09T06:10:23.314Z,29.97
2018-12-09T06:12:52.906Z,24.07
2018-12-09T06:15:22.338Z,26.73
2018-12-09T06:17:52.335Z,29.97
2018-12-09T06:20:21.511Z,23.10
2018-12-09T06:22:50.845Z,20.80
2018-12-09T06:25:21.064Z,29.23
2018-12-09T06:27:50.770Z,23.67
2018-12-09T06:30:19.941Z,30.00
2018-12-09T06:32:49.103Z,22.57
2018-12-09T06:35:18.322Z,21.93
2018-12-09T06:37:48.156Z,20.33
2018-12-09T06:40:17.290Z,27.07
2018-12-09T06:42:46.540Z,22.90
2018-12-09T06:45:15.605Z,19.93
2018-12-09T06:47:44.803Z,19.97
2018-12-09T06:50:14.009Z,21.33
2018-12-09T06:52:43.541Z,14.90
2018-12-09T06:55:12.619Z,17.37
2018-12-09T06:57:42.755Z,25.33
2018-12-09T07:00:12.264Z,19.87
2018-12-09T07:02:41.372Z,30.30
2018-12-09T07:05:10.526Z,18.40
2018-12-09T07:07:39.724Z,16.50
2018-12-09T07:10:10.412Z,20.47
2018-12-09T07:12:39.519Z,22.23
2018-12-09T07:15:09.702Z,30.30
2018-12-09T07:17:39.957Z,23.67
2018-12-09T07:20:09.973Z,19.20
2018-12-09T07:22:40.145Z,23.43
2018-12-09T07:25:09.695Z,23.47
2018-12-09T07:27:39.035Z,20.87
2018-12-09T07:30:10.038Z,14.03
2018-12-09T07:32:39.236Z,18.50
2018-12-09T07:35:08.742Z,17.57
2018-12-09T07:37:38.049Z,16.80
2018-12-09T07:40:09.799Z,18.20
2018-12-09T07:42:39.040Z,23.50
2018-12-09T07:45:08.397Z,21.83
2018-12-09T07:47:37.540Z,24.80
2018-12-09T07:50:07.417Z,19.13
2018-12-09T07:52:37.331Z,14.43
2018-12-09T07:55:06.513Z,16.57
2018-12-09T07:57:35.754Z,17.37
2018-12-09T08:00:05.348Z,18.00
2018-12-09T08:02:36.172Z,18.47
2018-12-09T08:05:09.261Z,15.80
2018-12-09T08:07:39.894Z,12.77
2018-12-09T08:10:10.727Z,24.50
2018-12-09T08:12:41.796Z,17.93
2018-12-09T08:15:12.912Z,19.83
2018-12-09T08:17:43.166Z,16.57
2018-12-09T08:20:13.898Z,16.80
2018-12-09T08:22:44.137Z,16.40
2018-12-09T08:25:13.322Z,16.10
2018-12-09T08:27:43.091Z,18.80
2018-12-09T08:30:12.399Z,18.73
2018-12-09T08:32:41.510Z,16.27
2018-12-09T08:35:11.525Z,15.53
2018-12-09T08:37:40.727Z,18.20
2018-12-09T08:40:09.860Z,21.17
2018-12-09T08:42:39.070Z,18.17
2018-12-09T08:45:08.310Z,19.97
2018-12-09T08:47:37.501Z,15.33
2018-12-09T08:50:08.648Z,14.93
2018-12-09T08:52:37.744Z,8.63
2018-12-09T08:55:07.028Z,14.17
2018-12-09T08:57:36.129Z,12.37
2018-12-09T09:00:05.471Z,7.13
2018-12-09T09:02:35.365Z,13.40
2018-12-09T09:05:04.468Z,14.80
2018-12-09T09:07:34.196Z,17.83
2018-12-09T09:10:03.809Z,12.23
2018-12-09T09:12:33.111Z,11.37
2018-12-09T09:15:02.469Z,16.00
2018-12-09T09:17:31.629Z,9.77
2018-12-09T09:20:00.867Z,13.30
2018-12-09T09:22:30.269Z,14.03
2018-12-09T09:24:59.515Z,11.07
2018-12-09T09:27:28.616Z,13.50
2018-12-09T09:29:58.018Z,16.93
2018-12-09T09:32:28.107Z,15.43
2018-12-09T09:34:57.524Z,8.97
2018-12-09T09:37:26.687Z,12.10
2018-12-09T09:39:56.555Z,12.43
2018-12-09T09:42:25.737Z,5.40
2018-12-09T09:44:55.029Z,4.87
2018-12-09T09:47:24.967Z,7.10
2018-12-09T09:49:55.055Z,10.23
2018-12-09T09:52:25.051Z,7.27
2018-12-09T09:54:54.431Z,10.63
2018-12-09T09:57:23.777Z,8.70
2018-12-09T09:59:54.196Z,8.97
2018-12-09T10:02:23.589Z,13.67
2018-12-09T10:04:52.715Z,8.73
2018-12-09T10:07:21.807Z,12.77
2018-12-09T10:09:51.167Z,8.70
2018-12-09T10:12:20.499Z,7.93
2018-12-09T10:14:49.591Z,10.93
2018-12-09T10:17:18.739Z,14.57
2018-12-09T10:19:47.819Z,10.67
2018-12-09T10:22:16.894Z,9.77
2018-12-09T10:24:45.954Z,14.40
2018-12-09T10:27:15.765Z,5.23
2018-12-09T10:29:45.933Z,10.07
2018-12-09T10:32:15.066Z,11.03
2018-12-09T10:34:44.159Z,10.57
2018-12-09T10:37:13.271Z,15.33
2018-12-09T10:39:42.422Z,12.50
2018-12-09T10:42:11.509Z,17.33
2018-12-09T10:44:40.877Z,9.93
2018-12-09T10:47:10.449Z,5.70
2018-12-09T10:49:39.842Z,11.40
2018-12-09T10:52:08.926Z,9.60
2018-12-09T10:54:38.039Z,6.77
2018-12-09T10:57:07.404Z,9.73
2018-12-09T10:59:37.353Z,7.40
2018-12-09T11:02:11.944Z,6.30
2018-12-09T11:04:41.058Z,6.03
2018-12-09T11:07:10.230Z,4.57
2018-12-09T11:09:39.430Z,7.47
2018-12-09T11:12:08.527Z,8.03
2018-12-09T11:14:39.330Z,9.63
2018-12-09T11:17:08.740Z,4.93
2018-12-09T11:19:38.497Z,7.47
2018-12-09T11:22:08.495Z,9.83
2018-12-09T11:24:37.798Z,7.87
2018-12-09T11:27:07.107Z,7.43
2018-12-09T11:29:36.257Z,10.43
2018-12-09T11:32:05.453Z,8.90
2018-12-09T11:34:35.580Z,6.70
2018-12-09T11:37:04.827Z,14.43
2018-12-09T11:39:34.494Z,9.13
2018-12-09T11:42:51.675Z,9.10
2018-12-09T11:45:42.939Z,11.20
2018-12-09T11:48:12.436Z,13.10
2018-12-09T11:50:42.663Z,9.13
2018-12-09T11:59:26.743Z,12.37
2018-12-09T12:01:57.122Z,14.27
2018-12-09T12:04:28.057Z,8.07
2018-12-09T12:06:57.772Z,8.37
2018-12-09T12:09:27.374Z,10.93
2018-12-09T12:11:56.831Z,5.83
2018-12-09T12:14:27.249Z,6.70
2018-12-09T12:16:56.502Z,11.47
2018-12-09T12:19:29.782Z,9.07
2018-12-09T12:21:59.591Z,6.57
2018-12-09T12:24:28.995Z,8.23
2018-12-09T12:27:00.727Z,11.77
2018-12-09T12:29:30.235Z,6.63
2018-12-09T12:31:59.390Z,9.67
2018-12-09T12:34:28.616Z,14.80
2018-12-09T12:36:58.209Z,7.83
2018-12-09T12:39:27.440Z,15.43
2018-12-09T12:41:56.578Z,6.73
2018-12-09T12:44:30.312Z,11.80
2018-12-09T12:46:59.766Z,5.77
2018-12-09T12:49:29.928Z,11.90
2018-12-09T12:51:59.990Z,9.57
2018-12-09T12:54:29.174Z,9.80
2018-12-09T12:57:02.666Z,15.20
2018-12-09T12:59:31.965Z,12.33
2018-12-09T13:02:01.185Z,12.90
2018-12-09T13:04:31.177Z,13.50
2018-12-09T13:07:01.246Z,8.37
2018-12-09T13:09:30.503Z,10.20
2018-12-09T13:11:59.999Z,10.63
2018-12-09T13:14:29.911Z,15.83
2018-12-09T13:16:59.030Z,10.80
2018-12-09T13:19:28.203Z,7.97
2018-12-09T13:21:58.427Z,8.97
2018-12-09T13:24:27.687Z,10.17
2018-12-09T13:26:57.776Z,9.27
2018-12-09T13:29:31.892Z,10.83
2018-12-09T13:32:01.173Z,11.40
2018-12-09T13:34:30.558Z,8.77
2018-12-09T13:37:04.171Z,8.43
2018-12-09T13:39:33.544Z,6.93
2018-12-09T13:42:03.324Z,6.93
2018-12-09T13:44:33.076Z,5.50
2018-12-09T14:07:11.678Z,9.97
2018-12-09T14:09:40.845Z,10.73
2018-12-09T14:12:10.031Z,7.90
2018-12-09T14:16:47.312Z,11.10
2018-12-09T14:19:18.091Z,14.03
2018-12-09T14:35:11.882Z,9.50
2018-12-09T14:37:41.360Z,10.57
2018-12-09T14:40:12.318Z,16.00
2018-12-09T14:42:41.495Z,8.00
2018-12-09T14:45:10.892Z,7.73
2018-12-09T14:47:41.109Z,6.60
2018-12-09T14:50:10.419Z,12.47
2018-12-09T14:52:39.807Z,8.50
2018-12-09T14:55:10.499Z,12.67
2018-12-09T14:57:39.061Z,8.80
2018-12-09T15:00:09.562Z,7.53
2018-12-09T15:02:38.806Z,13.97
2018-12-09T15:05:09.539Z,9.53
2018-12-09T15:07:38.685Z,8.90
2018-12-09T15:10:08.983Z,9.37
2018-12-09T15:12:37.697Z,8.30
2018-12-09T15:15:07.357Z,11.37
2018-12-09T15:17:36.603Z,6.63
2018-12-09T15:20:07.452Z,11.73
2018-12-09T15:22:36.627Z,11.97
2018-12-09T15:25:07.159Z,6.63
2018-12-09T15:27:37.331Z,10.30
2018-12-09T15:30:07.592Z,10.70
2018-12-09T15:32:36.882Z,9.63
2018-12-09T15:35:06.710Z,14.67
2018-12-09T15:37:35.872Z,11.43
2018-12-09T15:40:05.528Z,7.83
2018-12-09T15:42:34.727Z,10.47
2018-12-09T15:45:04.352Z,11.07
2018-12-09T15:47:34.156Z,6.80
2018-12-09T15:50:03.804Z,9.70
2018-12-09T15:52:33.497Z,10.80
2018-12-09T15:55:03.506Z,11.07
2018-12-09T15:57:33.113Z,8.10
2018-12-09T16:00:02.445Z,7.60
2018-12-09T16:02:33.624Z,9.23
2018-12-09T16:05:02.785Z,9.20
2018-12-09T16:07:33.084Z,11.47
2018-12-09T16:10:03.160Z,9.70
2018-12-09T16:12:32.473Z,6.83
2018-12-09T16:15:02.724Z,10.60
2018-12-09T16:17:31.954Z,11.30
2018-12-09T16:20:01.896Z,7.80
2018-12-09T16:22:31.047Z,10.87
2018-12-09T16:25:00.496Z,14.80
2018-12-09T16:27:30.413Z,9.20
2018-12-09T16:29:59.695Z,9.87
2018-12-09T16:32:29.076Z,11.63
2018-12-09T16:34:58.184Z,6.43
2018-12-09T16:37:27.336Z,7.83
2018-12-09T16:39:56.428Z,10.47
2018-12-09T16:42:25.700Z,16.47
2018-12-09T16:44:56.874Z,9.10
2018-12-09T16:47:26.134Z,8.53
2018-12-09T16:49:55.297Z,11.17
2018-12-09T16:52:24.504Z,13.27
2018-12-09T16:54:53.586Z,12.33
2018-12-09T16:57:24.018Z,9.83
2018-12-09T16:59:53.453Z,9.50
2018-12-09T17:02:22.617Z,10.90
2018-12-09T17:04:51.966Z,15.77
2018-12-09T17:07:26.291Z,9.37
2018-12-09T17:09:55.843Z,13.27
2018-12-09T17:12:25.293Z,10.50
2018-12-09T17:14:59.112Z,18.30
2018-12-09T17:17:28.379Z,6.47
2018-12-09T17:20:05.914Z,12.33
2018-12-09T17:22:27.657Z,8.70
2018-12-09T17:24:56.813Z,12.73
2018-12-09T17:27:25.994Z,11.43
2018-12-09T17:29:55.243Z,9.47
2018-12-09T17:32:24.419Z,11.83
2018-12-09T17:34:54.178Z,9.43
2018-12-09T17:37:23.453Z,13.97
2018-12-09T17:39:52.701Z,9.57
2018-12-09T17:42:22.496Z,11.97
2018-12-09T17:44:51.614Z,8.63
2018-12-09T17:47:20.785Z,8.50
2018-12-09T17:49:49.973Z,4.40
2018-12-09T17:52:22.094Z,7.07
2018-12-09T17:54:52.214Z,6.77
2018-12-09T17:57:21.682Z,12.40
2018-12-09T17:59:50.806Z,10.70
2018-12-09T18:02:19.960Z,11.67
2018-12-09T18:04:50.043Z,9.37
2018-12-09T18:07:19.194Z,8.10
2018-12-09T18:09:48.521Z,10.57
2018-12-09T18:12:18.450Z,5.30
2018-12-09T18:14:48.516Z,10.43
2018-12-09T18:17:18.269Z,9.97
2018-12-09T18:19:47.819Z,9.77
2018-12-09T18:22:17.088Z,13.73
2018-12-09T18:24:47.337Z,9.40
2018-12-09T18:27:16.620Z,16.87
2018-12-09T18:29:45.904Z,14.20
2018-12-09T18:32:15.211Z,7.63
2018-12-09T18:34:46.170Z,7.33
2018-12-09T18:37:15.343Z,10.87
2018-12-09T18:39:46.176Z,12.10
2018-12-09T18:42:15.417Z,9.17
2018-12-09T18:44:47.858Z,10.17
2018-12-09T18:47:17.326Z,11.33
2018-12-09T18:49:46.615Z,10.70
2018-12-09T18:52:15.753Z,10.93
2018-12-09T18:54:45.877Z,8.70
2018-12-09T18:57:15.009Z,7.07
2018-12-09T18:59:44.256Z,7.97
2018-12-09T19:02:13.421Z,8.60
2018-12-09T19:04:45.168Z,11.20
2018-12-09T19:07:15.984Z,12.40
2018-12-09T19:09:47.914Z,9.00
2018-12-09T19:12:18.363Z,14.33
2018-12-09T19:14:50.532Z,10.60
2018-12-09T19:17:21.567Z,13.83
2018-12-09T19:19:50.978Z,14.47
2018-12-09T19:22:20.460Z,11.97
2018-12-09T19:24:49.659Z,13.43
2018-12-09T19:27:20.343Z,11.87
2018-12-09T19:29:49.692Z,12.97
2018-12-09T19:32:19.396Z,13.90
2018-12-09T19:34:49.642Z,12.10
2018-12-09T19:37:18.784Z,13.30
2018-12-09T19:39:48.189Z,12.43
2018-12-09T19:42:17.489Z,9.97
2018-12-09T19:44:46.656Z,12.40
2018-12-09T19:47:15.829Z,11.83
2018-12-09T19:49:45.260Z,13.53
2018-12-09T19:52:14.367Z,12.97
2018-12-09T19:54:43.535Z,14.00
2018-12-09T19:57:12.825Z,15.70
2018-12-09T19:59:43.150Z,14.80
2018-12-09T20:02:12.904Z,16.40
2018-12-09T20:04:43.690Z,10.53
2018-12-09T20:07:15.701Z,14.53
2018-12-09T20:09:45.405Z,16.43
2018-12-09T20:12:16.004Z,10.70
2018-12-09T20:14:47.478Z,11.07
2018-12-09T20:17:16.863Z,8.53
2018-12-09T20:19:46.149Z,12.57
2018-12-09T20:22:16.519Z,11.47
2018-12-09T20:24:51.113Z,7.93
2018-12-09T20:27:22.088Z,8.07
2018-12-09T20:29:51.865Z,14.70
2018-12-09T20:32:21.500Z,10.43
2018-12-09T20:34:51.348Z,10.03
2018-12-09T20:37:20.577Z,9.87
2018-12-09T20:39:49.819Z,12.37
2018-12-09T20:42:19.059Z,11.03
2018-12-09T20:44:48.274Z,13.50
2018-12-09T20:47:19.212Z,10.33
2018-12-09T20:49:48.414Z,10.03
2018-12-09T20:54:59.699Z,7.93
2018-12-09T20:57:29.818Z,10.63
2018-12-09T20:59:59.778Z,11.67
2018-12-09T21:02:28.948Z,12.97
2018-12-09T21:04:58.237Z,7.80
2018-12-09T21:07:27.436Z,13.93
2018-12-09T21:09:57.696Z,11.17
2018-12-09T21:12:26.848Z,4.57
2018-12-09T21:14:56.878Z,19.67
2018-12-09T21:17:26.143Z,13.50
2018-12-09T21:19:55.456Z,13.97
2018-12-09T21:22:24.932Z,11.07
2018-12-09T21:24:54.252Z,12.47
2018-12-09T21:27:23.379Z,17.80
2018-12-09T21:29:52.696Z,10.87
2018-12-09T21:32:21.790Z,15.17
2018-12-09T21:34:50.912Z,7.63
2018-12-09T21:37:20.041Z,7.43
2018-12-09T21:39:53.144Z,14.63
2018-12-09T21:42:22.318Z,10.47
2018-12-09T21:44:51.718Z,14.43
2018-12-09T21:47:20.896Z,11.13
2018-12-09T21:49:50.049Z,9.00
2018-12-09T21:52:19.502Z,18.73
2018-12-09T21:54:48.699Z,12.20
2018-12-09T21:57:17.874Z,10.47
2018-12-09T21:59:47.279Z,12.30
2018-12-09T22:02:16.490Z,11.70
2018-12-09T22:04:46.406Z,11.50
2018-12-09T22:07:18.879Z,11.60
2018-12-09T22:09:48.029Z,14.03
2018-12-09T22:12:17.153Z,11.47
2018-12-09T22:14:48.436Z,8.40
2018-12-09T22:17:17.632Z,8.70
2018-12-09T22:19:47.850Z,8.63
2018-12-09T22:22:17.569Z,10.47
2018-12-09T22:24:46.755Z,12.10
2018-12-09T22:27:15.971Z,9.30
2018-12-09T22:29:45.330Z,13.63
2018-12-09T22:32:15.162Z,10.67
2018-12-09T22:34:44.448Z,10.23
2018-12-09T22:37:13.612Z,10.40
2018-12-09T22:39:44.205Z,5.00
2018-12-09T22:42:13.342Z,8.07
2018-12-09T22:44:42.691Z,8.33
2018-12-09T22:47:12.832Z,12.80
2018-12-09T22:49:42.024Z,7.00
2018-12-09T22:52:11.217Z,6.27
2018-12-09T22:54:40.357Z,12.43
2018-12-09T22:57:09.458Z,9.13
2018-12-09T22:59:39.571Z,10.70
2018-12-09T23:02:13.792Z,6.20
2018-12-09T23:04:43.125Z,9.33
2018-12-09T23:07:17.390Z,7.80
2018-12-09T23:09:46.552Z,8.53
2018-12-09T23:12:15.954Z,12.60
2018-12-09T23:14:45.237Z,6.40
2018-12-09T23:17:31.870Z,11.17
2018-12-09T23:20:22.247Z,4.10
2018-12-09T23:23:08.095Z,9.97
2018-12-09T23:25:53.583Z,11.43
2018-12-09T23:28:40.266Z,11.17
2018-12-09T23:31:26.622Z,7.00
2018-12-09T23:34:13.493Z,9.33
2018-12-09T23:37:00.587Z,13.50
2018-12-09T23:39:30.429Z,10.77
2018-12-09T23:42:18.201Z,18.20
2018-12-09T23:45:05.445Z,5.67
2018-12-09T23:47:56.425Z,8.17
2018-12-09T23:50:41.234Z,8.93
2018-12-09T23:53:27.230Z,6.50
2018-12-09T23:56:13.860Z,8.47
2018-12-09T23:58:44.685Z,9.70
